Hortonville, Wisconsin
Current Conditions -  °F | °C
As of 11:45 AM on Friday 24 Oct 2014 (Local Time) from KATW Reporting Station
Haze Haze  
Wind Chill: 46°   Ceiling: 200
Heat Index: 48°   Visibility: 0.75mi
Dew Point: 48°   Wind: 6mph
Humidity: 100%   Direction: 220°SW
Pressure: 30.02"   Gusts: NA
Location:  44.33°N, 88.64°W
Report Text: KATW 241645Z 22005KT 3/4SM BR VV002 09/09 A3002
Loading
Personal Weather Stations






























Interactive Weather Map
Tropical Storm Tracking
New forecast layout! Learn more

10-Day Weather Forecast

Advertisements
Track Severe Weather on mobile